Map

Track Data

SID SEASON NUMBER BASIN SUBBASIN NAME ISO_TIME NATURE LAT LON WMO_WIND WMO_PRES WMO_AGENCY TRACK_TYPE DIST2LAND LANDFALL IFLAG USA_AGENCY USA_ATCF_ID USA_LAT USA_LON USA_RECORD USA_STATUS USA_WIND USA_PRES USA_SSHS USA_R34_NE USA_R34_SE USA_R34_SW USA_R34_NW USA_R50_NE USA_R50_SE USA_R50_SW USA_R50_NW USA_R64_NE USA_R64_SE USA_R64_SW USA_R64_NW USA_POCI USA_ROCI USA_RMW USA_EYE TOKYO_LAT TOKYO_LON TOKYO_GRADE TOKYO_WIND TOKYO_PRES TOKYO_R50_DIR TOKYO_R50_LONG TOKYO_R50_SHORT TOKYO_R30_DIR TOKYO_R30_LONG TOKYO_R30_SHORT TOKYO_LAND CMA_LAT CMA_LON CMA_CAT CMA_WIND CMA_PRES HKO_LAT HKO_LON HKO_CAT HKO_WIND HKO_PRES NEWDELHI_LAT NEWDELHI_LON NEWDELHI_GRADE NEWDELHI_WIND NEWDELHI_PRES NEWDELHI_CI NEWDELHI_DP NEWDELHI_POCI REUNION_LAT REUNION_LON REUNION_TYPE REUNION_WIND REUNION_PRES REUNION_TNUM REUNION_CI REUNION_RMW REUNION_R34_NE REUNION_R34_SE REUNION_R34_SW REUNION_R34_NW REUNION_R50_NE REUNION_R50_SE REUNION_R50_SW REUNION_R50_NW REUNION_R64_NE REUNION_R64_SE REUNION_R64_SW REUNION_R64_NW BOM_LAT BOM_LON BOM_TYPE BOM_WIND BOM_PRES BOM_TNUM BOM_CI BOM_RMW BOM_R34_NE BOM_R34_SE BOM_R34_SW BOM_R34_NW BOM_R50_NE BOM_R50_SE BOM_R50_SW BOM_R50_NW BOM_R64_NE BOM_R64_SE BOM_R64_SW BOM_R64_NW BOM_ROCI BOM_POCI BOM_EYE BOM_POS_METHOD BOM_PRES_METHOD NADI_LAT NADI_LON NADI_CAT NADI_WIND NADI_PRES WELLINGTON_LAT WELLINGTON_LON WELLINGTON_WIND WELLINGTON_PRES DS824_LAT DS824_LON DS824_STAGE DS824_WIND DS824_PRES TD9636_LAT TD9636_LON TD9636_STAGE TD9636_WIND TD9636_PRES TD9635_LAT TD9635_LON TD9635_WIND TD9635_PRES TD9635_ROCI NEUMANN_LAT NEUMANN_LON NEUMANN_CLASS NEUMANN_WIND NEUMANN_PRES MLC_LAT MLC_LON MLC_CLASS MLC_WIND MLC_PRES USA_GUST BOM_GUST BOM_GUST_PER REUNION_GUST REUNION_GUST_PER USA_SEAHGT USA_SEARAD_NE USA_SEARAD_SE USA_SEARAD_SW USA_SEARAD_NW STORM_SPEED STORM_DIR
1897060S14067 1897 9 SI MM NOT_NAMED 1897-03-01 06:00:00 NR -14.3000 66.9000 reunion main 1172 1172 _____O________ -1 -14.3000 66.9000 99 9.90000 0 0
1897060S14067 1897 9 SI MM NOT_NAMED 1897-03-01 09:00:00 NR -14.3203 66.8860 main 1172 1172 _____P________ -1 -14.3203 66.8860 99 1 215
1897060S14067 1897 9 SI MM NOT_NAMED 1897-03-01 12:00:00 NR -14.3458 66.8649 main 1172 1157 _____P________ -1 -14.3458 66.8649 99 1 219
1897060S14067 1897 9 SI MM NOT_NAMED 1897-03-01 15:00:00 NR -14.3817 66.8300 main 1157 1157 _____P________ -1 -14.3817 66.8300 99 1 226
1897060S14067 1897 9 SI MM NOT_NAMED 1897-03-01 18:00:00 NR -14.4333 66.7740 main 1157 1142 _____P________ -1 -14.4333 66.7740 99 2 228
1897060S14067 1897 9 SI MM NOT_NAMED 1897-03-01 21:00:00 NR -14.5058 66.6902 main 1142 1127 _____P________ -1 -14.5058 66.6902 99 3 229
1897060S14067 1897 9 SI MM NOT_NAMED 1897-03-02 00:00:00 NR -14.6043 66.5713 main 1127 1103 _____P________ -1 -14.6043 66.5713 99 4 230
1897060S14067 1897 9 SI MM NOT_NAMED 1897-03-02 03:00:00 NR -14.7340 66.4103 main 1103 1072 _____P________ -1 -14.7340 66.4103 99 5 230
1897060S14067 1897 9 SI MM NOT_NAMED 1897-03-02 06:00:00 NR -14.9000 66.2000 reunion main 1072 1042 _____O________ -1 -14.9000 66.2000 99 9.90000 6 231
1897060S14067 1897 9 SI MM NOT_NAMED 1897-03-02 09:00:00 NR -15.1052 65.9373 main 1033 1003 _____P________ -1 -15.1052 65.9373 99 7 231
1897060S14067 1897 9 SI MM NOT_NAMED 1897-03-02 12:00:00 NR -15.3434 65.6355 main 994 948 _____P________ -1 -15.3434 65.6355 99 8 230
1897060S14067 1897 9 SI MM NOT_NAMED 1897-03-02 15:00:00 NR -15.6062 65.3123 main 948 903 _____P________ -1 -15.6062 65.3123 99 8 229
1897060S14067 1897 9 SI MM NOT_NAMED 1897-03-02 18:00:00 NR -15.8852 64.9854 main 903 858 _____P________ -1 -15.8852 64.9854 99 8 227
1897060S14067 1897 9 SI MM NOT_NAMED 1897-03-02 21:00:00 NR -16.1721 64.6726 main 858 819 _____P________ -1 -16.1721 64.6726 99 8 225
1897060S14067 1897 9 SI MM NOT_NAMED 1897-03-03 00:00:00 NR -16.4589 64.3919 main 813 784 _____P________ -1 -16.4589 64.3919 99 8 221
1897060S14067 1897 9 SI MM NOT_NAMED 1897-03-03 03:00:00 NR -16.7375 64.1617 main 784 749 _____P________ -1 -16.7375 64.1617 99 7 215
1897060S14067 1897 9 SI MM NOT_NAMED 1897-03-03 06:00:00 NR -17.0000 64.0000 reunion main 749 738 _____O________ -1 -17.0000 64.0000 99 9.90000 5 202
1897060S14067 1897 9 SI MM NOT_NAMED 1897-03-03 09:00:00 NR -17.2014 63.9597 main 738 728 _____P________ -1 -17.2014 63.9597 99 4 184
1897060S14067 1897 9 SI MM NOT_NAMED 1897-03-03 12:00:00 NR -17.3888 63.9843 main 728 723 _____P________ -1 -17.3888 63.9843 99 4 165
1897060S14067 1897 9 SI MM NOT_NAMED 1897-03-03 15:00:00 NR -17.5673 64.0632 main 728 723 _____P________ -1 -17.5673 64.0632 99 4 151
1897060S14067 1897 9 SI MM NOT_NAMED 1897-03-03 18:00:00 NR -17.7417 64.1858 main 732 728 _____P________ -1 -17.7417 64.1858 99 4 143
1897060S14067 1897 9 SI MM NOT_NAMED 1897-03-03 21:00:00 NR -17.9172 64.3415 main 733 733 _____P________ -1 -17.9172 64.3415 99 5 139
1897060S14067 1897 9 SI MM NOT_NAMED 1897-03-04 00:00:00 NR -18.0987 64.5196 main 745 745 _____P________ -1 -18.0987 64.5196 99 5 137
1897060S14067 1897 9 SI MM NOT_NAMED 1897-03-04 03:00:00 NR -18.2913 64.7093 main 757 757 _____P________ -1 -18.2913 64.7093 99 5 138
1897060S14067 1897 9 SI MM NOT_NAMED 1897-03-04 06:00:00 NR -18.5000 64.9000 reunion main 771 768 _____O________ -1 -18.5000 64.9000 99 9.90000 5 145
1897060S14067 1897 9 SI MM NOT_NAMED 1897-03-04 09:00:00 NR -18.7231 65.0257 main 775 772 _____P________ -1 -18.7231 65.0257 99 5 152
1897060S14067 1897 9 SI MM NOT_NAMED 1897-03-04 12:00:00 NR -18.9587 65.1576 main 788 786 _____P________ -1 -18.9587 65.1576 99 6 152
1897060S14067 1897 9 SI MM NOT_NAMED 1897-03-04 15:00:00 NR -19.2078 65.2977 main 794 792 _____P________ -1 -19.2078 65.2977 99 6 152
1897060S14067 1897 9 SI MM NOT_NAMED 1897-03-04 18:00:00 NR -19.4718 65.4483 main 799 799 _____P________ -1 -19.4718 65.4483 99 6 151
1897060S14067 1897 9 SI MM NOT_NAMED 1897-03-04 21:00:00 NR -19.7518 65.6116 main 816 816 _____P________ -1 -19.7518 65.6116 99 7 151
1897060S14067 1897 9 SI MM NOT_NAMED 1897-03-05 00:00:00 NR -20.0490 65.7898 main 835 834 _____P________ -1 -20.0490 65.7898 99 7 150
1897060S14067 1897 9 SI MM NOT_NAMED 1897-03-05 03:00:00 NR -20.3647 65.9851 main 854 854 _____P________ -1 -20.3647 65.9851 99 8 149
1897060S14067 1897 9 SI MM NOT_NAMED 1897-03-05 06:00:00 NR -20.7000 66.2000 reunion main 875 875 _____O________ -1 -20.7000 66.2000 99 9.90000 9 148
1897060S14067 1897 9 SI MM NOT_NAMED 1897-03-05 09:00:00 NR -21.1002 66.4706 main 909 909 _____P________ -1 -21.1002 66.4706 99 10 147
1897060S14067 1897 9 SI MM NOT_NAMED 1897-03-05 12:00:00 NR -21.5272 66.7665 main 944 944 _____P________ -1 -21.5272 66.7665 99 10 147
1897060S14067 1897 9 SI MM NOT_NAMED 1897-03-05 15:00:00 NR -21.9674 67.0779 main 982 982 _____P________ -1 -21.9674 67.0779 99 11 146
1897060S14067 1897 9 SI MM NOT_NAMED 1897-03-05 18:00:00 NR -22.4075 67.3944 main 1021 1021 _____P________ -1 -22.4075 67.3944 99 10 146
1897060S14067 1897 9 SI MM NOT_NAMED 1897-03-05 21:00:00 NR -22.8340 67.7056 main 1060 1060 _____P________ -1 -22.8340 67.7056 99 10 146
1897060S14067 1897 9 SI MM NOT_NAMED 1897-03-06 00:00:00 NR -23.2337 68.0010 main 1101 1101 _____P________ -1 -23.2337 68.0010 99 9 146
1897060S14067 1897 9 SI MM NOT_NAMED 1897-03-06 03:00:00 NR -23.5934 68.2695 main 1143 1143 _____P________ -1 -23.5934 68.2695 99 8 145
1897060S14067 1897 9 SI MM NOT_NAMED 1897-03-06 06:00:00 NR -23.9000 68.5000 reunion main 1172 1172 _____O________ -1 -23.9000 68.5000 99 9.90000 7 145
1897060S14067 1897 9 SI MM NOT_NAMED 1897-03-06 09:00:00 NR -24.1440 68.6842 main 1199 1199 _____P________ -1 -24.1440 68.6842 99 5 146
1897060S14067 1897 9 SI MM NOT_NAMED 1897-03-06 12:00:00 NR -24.3302 68.8251 main 1215 1215 _____P________ -1 -24.3302 68.8251 99 4 145
1897060S14067 1897 9 SI MM NOT_NAMED 1897-03-06 15:00:00 NR -24.4671 68.9285 main 1232 1232 _____P________ -1 -24.4671 68.9285 99 3 145
1897060S14067 1897 9 SI MM NOT_NAMED 1897-03-06 18:00:00 NR -24.5629 69.0006 main 1246 1246 _____P________ -1 -24.5629 69.0006 99 2 147
1897060S14067 1897 9 SI MM NOT_NAMED 1897-03-06 21:00:00 NR -24.6259 69.0475 main 1246 1246 _____P________ -1 -24.6259 69.0475 99 1 144
1897060S14067 1897 9 SI MM NOT_NAMED 1897-03-07 00:00:00 NR -24.6642 69.0755 main 1259 1259 _____P________ -1 -24.6642 69.0755 99 1 152
1897060S14067 1897 9 SI MM NOT_NAMED 1897-03-07 03:00:00 NR -24.6862 69.0909 main 1259 1259 _____P________ -1 -24.6862 69.0909 99 0 155
1897060S14067 1897 9 SI MM NOT_NAMED 1897-03-07 06:00:00 NR -24.7000 69.1000 reunion main 1259 _____O________ -1 -24.7000 69.1000 99 9.90000 0 0

About IBTrACS Database

This database is a web-friendly format of International Best Track Archive for Climate Stewardship (IBTrACS), a global best track data archive curated by NOAA dating back to 1842.

Updated: 2021-10-27